createdAt,value
2023-04-15T00:01:25.709Z,100465.44
2023-04-15T00:03:57.687Z,100466.31
2023-04-15T00:06:28.505Z,100475.00
2023-04-15T00:09:00.929Z,100479.34
2023-04-15T00:11:31.923Z,100473.28
2023-04-15T00:14:02.448Z,100449.84
2023-04-15T00:16:33.030Z,100484.53
2023-04-15T00:19:03.724Z,100474.13
2023-04-15T00:21:34.353Z,100473.25
2023-04-15T00:24:06.573Z,100488.84
2023-04-15T00:26:37.083Z,100461.13
2023-04-15T00:29:07.650Z,100475.00
2023-04-15T00:31:38.079Z,100487.09
2023-04-15T00:34:08.632Z,100482.78
2023-04-15T00:36:39.159Z,100467.97
2023-04-15T00:39:11.650Z,100481.88
2023-04-15T00:41:42.207Z,100468.06
2023-04-15T00:44:13.016Z,100474.94
2023-04-15T00:46:44.460Z,100476.72
2023-04-15T00:49:15.683Z,100474.97
2023-04-15T00:51:46.400Z,100471.50
2023-04-15T00:54:18.856Z,100467.16
2023-04-15T00:56:49.374Z,100471.44
2023-04-15T00:59:21.334Z,100459.19
2023-04-15T01:01:52.806Z,100453.97
2023-04-15T01:04:23.950Z,100462.56
2023-04-15T01:06:54.668Z,100452.84
2023-04-15T01:09:26.913Z,100449.38
2023-04-15T01:11:57.983Z,100456.53
2023-04-15T01:14:28.708Z,100451.41
2023-04-15T01:16:59.352Z,100449.84
2023-04-15T01:19:29.904Z,100442.03
2023-04-15T01:22:00.526Z,100444.66
2023-04-15T01:24:34.411Z,100407.41
2023-04-15T01:27:07.571Z,100433.31
2023-04-15T01:29:46.962Z,100443.66
2023-04-15T01:32:17.667Z,100435.88
2023-04-15T01:34:48.205Z,100439.31
2023-04-15T01:37:18.778Z,100448.88
2023-04-15T01:39:49.386Z,100448.91
2023-04-15T01:42:21.761Z,100442.06
2023-04-15T01:44:52.848Z,100440.34
2023-04-15T01:47:23.431Z,100436.84
2023-04-15T01:49:53.948Z,100434.25
2023-04-15T01:52:24.521Z,100429.00
2023-04-15T01:54:55.116Z,100407.13
2023-04-15T01:57:27.280Z,100410.38
2023-04-15T01:59:57.658Z,100407.53
2023-04-15T02:02:28.487Z,100403.06
2023-04-15T02:04:59.107Z,100408.72
2023-04-15T02:07:33.080Z,100395.00
2023-04-15T02:10:03.754Z,100400.38
2023-04-15T02:12:35.898Z,100412.53
2023-04-15T02:15:06.762Z,100409.03
2023-04-15T02:17:38.439Z,100394.97
2023-04-15T02:20:10.196Z,100398.00
2023-04-15T02:22:40.748Z,100396.13
2023-04-15T02:25:12.598Z,100388.38
2023-04-15T02:27:44.749Z,100385.69
2023-04-15T02:30:15.390Z,100397.56
2023-04-15T02:32:46.027Z,100382.09
2023-04-15T02:35:16.522Z,100385.94
2023-04-15T02:37:47.462Z,100348.28
2023-04-15T02:40:18.031Z,100389.22
2023-04-15T02:42:50.332Z,100394.44
2023-04-15T02:45:24.557Z,100391.81
2023-04-15T02:47:55.205Z,100390.09
2023-04-15T02:50:26.470Z,100399.59
2023-04-15T02:52:57.018Z,100381.41
2023-04-15T02:55:27.645Z,100388.34
2023-04-15T02:58:01.960Z,100376.22
2023-04-15T03:00:32.566Z,100376.13
2023-04-15T03:03:09.519Z,100372.66
2023-04-15T03:05:40.949Z,100389.13
2023-04-15T03:08:11.604Z,100379.63
2023-04-15T03:10:45.091Z,100376.19
2023-04-15T03:13:17.472Z,100386.53
2023-04-15T03:15:49.892Z,100383.00
2023-04-15T03:18:21.031Z,100367.38
2023-04-15T03:20:51.837Z,100382.16
2023-04-15T03:23:22.403Z,100374.47
2023-04-15T03:25:52.932Z,100387.50
2023-04-15T03:28:25.068Z,100366.72
2023-04-15T03:30:55.581Z,100377.09
2023-04-15T03:33:26.309Z,100373.63
2023-04-15T03:35:56.958Z,100369.31
2023-04-15T03:38:27.974Z,100384.81
2023-04-15T03:40:58.619Z,100372.41
2023-04-15T03:43:30.781Z,100376.59
2023-04-15T03:46:01.996Z,100379.91
2023-04-15T03:48:32.713Z,100354.97
2023-04-15T03:51:03.339Z,100372.59
2023-04-15T03:53:33.806Z,100384.88
2023-04-15T03:56:04.357Z,100390.09
2023-04-15T03:58:36.735Z,100390.06
2023-04-15T04:01:07.321Z,100386.59
2023-04-15T04:03:38.218Z,100388.28
2023-04-15T04:06:09.013Z,100386.56
2023-04-15T04:08:39.735Z,100388.31
2023-04-15T04:11:12.959Z,100384.84
2023-04-15T04:13:45.259Z,100381.38
2023-04-15T04:16:15.917Z,100373.50
2023-04-15T04:18:46.602Z,100366.53
2023-04-15T04:21:17.245Z,100367.31
2023-04-15T04:23:47.734Z,100360.34
2023-04-15T04:26:18.292Z,100361.25
2023-04-15T04:28:50.386Z,100359.63
2023-04-15T04:31:21.090Z,100333.59
2023-04-15T04:33:51.712Z,100375.06
2023-04-15T04:36:22.388Z,100381.16
2023-04-15T04:38:52.966Z,100376.06
2023-04-15T04:41:23.725Z,100369.00
2023-04-15T04:43:55.882Z,100354.13
2023-04-15T04:46:26.576Z,100366.03
2023-04-15T04:48:57.116Z,100362.72
2023-04-15T04:51:28.781Z,100358.56
2023-04-15T04:54:00.810Z,100376.78
2023-04-15T04:56:32.241Z,100364.63
2023-04-15T04:59:04.491Z,100353.19
2023-04-15T05:01:37.864Z,100358.31
2023-04-15T05:04:08.756Z,100350.66
2023-04-15T05:06:39.375Z,100357.72
2023-04-15T05:09:09.974Z,100348.94
2023-04-15T05:11:40.485Z,100348.97
2023-04-15T05:14:12.742Z,100362.09
2023-04-15T05:16:43.254Z,100353.31
2023-04-15T05:19:14.010Z,100337.78
2023-04-15T05:21:44.568Z,100349.88
2023-04-15T05:24:15.296Z,100355.88
2023-04-15T05:26:45.787Z,100343.63
2023-04-15T05:29:18.119Z,100347.75
2023-04-15T05:31:48.512Z,100350.47
2023-04-15T05:34:19.010Z,100352.25
2023-04-15T05:36:49.479Z,100358.28
2023-04-15T05:39:20.029Z,100350.63
2023-04-15T05:41:50.590Z,100351.22
2023-04-15T05:44:22.631Z,100360.03
2023-04-15T05:46:53.013Z,100365.28
2023-04-15T05:49:23.440Z,100320.09
2023-04-15T05:51:53.857Z,100352.50
2023-04-15T05:54:24.494Z,100352.81
2023-04-15T05:56:54.838Z,100365.34
2023-04-15T05:59:26.861Z,100325.59
2023-04-15T06:01:57.414Z,100358.41
2023-04-15T06:04:28.135Z,100353.22
2023-04-15T06:06:58.663Z,100350.69
2023-04-15T06:09:29.966Z,100355.13
2023-04-15T06:12:02.525Z,100348.25
2023-04-15T06:14:34.896Z,100350.00
2023-04-15T06:17:05.398Z,100343.81
2023-04-15T06:19:37.037Z,100349.78
2023-04-15T06:22:08.071Z,100342.03
2023-04-15T06:24:38.571Z,100350.72
2023-04-15T06:27:08.978Z,100356.84
2023-04-15T06:29:41.058Z,100318.00
2023-04-15T06:32:11.773Z,100349.13
2023-04-15T06:34:42.427Z,100350.84
2023-04-15T06:37:16.916Z,100346.59
2023-04-15T06:39:47.390Z,100343.19
2023-04-15T06:42:18.186Z,100351.03
2023-04-15T06:44:50.851Z,100359.69
2023-04-15T06:47:21.252Z,100364.00
2023-04-15T06:49:51.794Z,100352.75
2023-04-15T06:52:22.619Z,100366.63
2023-04-15T06:54:53.213Z,100369.22
2023-04-15T06:57:23.809Z,100358.81
2023-04-15T06:59:56.295Z,100370.97
2023-04-15T07:02:27.218Z,100368.41
2023-04-15T07:04:57.900Z,100367.53
2023-04-15T07:07:28.549Z,100372.72
2023-04-15T07:09:58.959Z,100379.69
2023-04-15T07:12:29.740Z,100389.19
2023-04-15T07:15:01.840Z,100382.28
2023-04-15T07:17:32.431Z,100376.22
2023-04-15T07:20:02.860Z,100364.09
2023-04-15T07:22:33.356Z,100364.97
2023-04-15T07:25:03.978Z,100369.31
2023-04-15T07:27:34.422Z,100376.22
2023-04-15T07:30:06.754Z,100375.34
2023-04-15T07:32:37.064Z,100382.28
2023-04-15T07:35:07.960Z,100392.66
2023-04-15T07:37:38.353Z,100397.00
2023-04-15T07:40:09.949Z,100390.91
2023-04-15T07:42:41.414Z,100405.63
2023-04-15T07:45:14.496Z,100409.13
2023-04-15T07:47:45.016Z,100402.16
2023-04-15T07:50:15.682Z,100377.00
2023-04-15T07:52:46.225Z,100422.06
2023-04-15T07:55:18.452Z,100428.06
2023-04-15T07:57:49.451Z,100428.91
2023-04-15T08:00:22.674Z,100428.88
2023-04-15T08:02:54.828Z,100408.91
2023-04-15T08:05:25.577Z,100427.91
2023-04-15T08:07:56.183Z,100385.44
2023-04-15T08:10:26.661Z,100407.16
2023-04-15T08:12:58.419Z,100361.09
2023-04-15T08:15:30.502Z,100400.06
2023-04-15T08:18:01.570Z,100412.16
2023-04-15T08:20:31.939Z,100413.84
2023-04-15T08:23:02.266Z,100419.03
2023-04-15T08:25:32.757Z,100415.53
2023-04-15T08:28:08.840Z,100441.47
2023-04-15T08:30:40.995Z,100427.50
2023-04-15T08:33:11.356Z,100426.69
2023-04-15T08:35:41.696Z,100430.91
2023-04-15T08:38:12.207Z,100448.06
2023-04-15T08:40:45.941Z,100394.22
2023-04-15T08:43:23.435Z,100434.09
2023-04-15T08:45:56.277Z,100428.91
2023-04-15T08:48:28.126Z,100441.78
2023-04-15T08:50:59.846Z,100447.72
2023-04-15T08:53:31.943Z,100458.00
2023-04-15T08:56:07.875Z,100453.56
2023-04-15T08:58:39.131Z,100461.22
2023-04-15T09:01:14.385Z,100473.16
2023-04-15T09:03:48.742Z,100470.38
2023-04-15T09:06:20.598Z,100453.69
2023-04-15T09:08:51.328Z,100480.41
2023-04-15T09:11:22.169Z,100467.09
2023-04-15T09:13:53.293Z,100475.63
2023-04-15T09:16:25.422Z,100485.81
2023-04-15T09:18:59.375Z,100492.50
2023-04-15T09:21:30.430Z,100489.75
2023-04-15T09:24:03.846Z,100493.91
2023-04-15T09:26:36.566Z,100486.69
2023-04-15T09:29:11.369Z,100495.28
2023-04-15T09:31:44.353Z,100486.56
2023-04-15T09:34:15.216Z,100495.16
2023-04-15T09:36:57.072Z,100492.16
2023-04-15T09:39:28.399Z,100490.03
2023-04-15T09:42:09.404Z,100474.84
2023-04-15T09:44:42.778Z,100492.00
2023-04-15T09:47:31.776Z,100493.59
2023-04-15T09:50:03.366Z,100503.84
2023-04-15T09:52:35.126Z,100502.94
2023-04-15T09:55:05.623Z,100503.72
2023-04-15T09:57:40.122Z,100501.78
2023-04-15T10:00:12.216Z,100422.47
2023-04-15T10:02:46.165Z,100507.47
2023-04-15T10:05:19.035Z,100517.72
2023-04-15T10:07:50.114Z,100516.50
2023-04-15T10:10:23.031Z,100514.56
2023-04-15T10:12:55.169Z,100520.50
2023-04-15T10:15:27.097Z,100531.78
2023-04-15T10:18:03.748Z,100533.50
2023-04-15T10:20:34.571Z,100538.88
2023-04-15T10:23:09.921Z,100532.88
2023-04-15T10:25:44.782Z,100543.97
2023-04-15T10:28:16.449Z,100503.53
2023-04-15T10:30:50.690Z,100545.16
2023-04-15T10:33:34.461Z,100570.44
2023-04-15T10:36:08.175Z,100556.41
2023-04-15T10:38:42.049Z,100554.34
2023-04-15T10:41:26.452Z,100482.00
2023-04-15T10:44:01.274Z,100558.47
2023-04-15T10:46:39.646Z,100565.50
2023-04-15T10:49:16.448Z,100531.53
2023-04-15T10:51:48.433Z,100571.56
2023-04-15T10:54:37.155Z,100471.84
2023-04-15T10:57:19.661Z,100572.00
2023-04-15T11:00:13.863Z,100572.03
2023-04-15T11:02:51.138Z,100578.16
2023-04-15T11:05:25.619Z,100582.53
2023-04-15T11:07:57.968Z,100589.53
2023-04-15T11:10:56.251Z,100594.25
2023-04-15T11:13:37.021Z,100578.16
2023-04-15T11:16:10.594Z,100548.75
2023-04-15T11:18:41.008Z,100600.06
2023-04-15T11:21:13.182Z,100592.22
2023-04-15T11:23:48.275Z,100590.53
2023-04-15T11:26:22.919Z,100596.28
2023-04-15T11:28:55.659Z,100593.72
2023-04-15T11:31:32.738Z,100582.31
2023-04-15T11:34:06.719Z,100586.38
2023-04-15T11:36:39.511Z,100580.34
2023-04-15T11:39:10.918Z,100576.75
2023-04-15T11:41:41.536Z,100571.28
2023-04-15T11:44:20.321Z,100576.41
2023-04-15T11:46:51.098Z,100571.94
2023-04-15T11:49:30.950Z,100566.06
2023-04-15T11:52:03.081Z,100562.66
2023-04-15T11:54:33.493Z,100568.03
2023-04-15T11:57:04.437Z,100564.56
2023-04-15T11:59:48.239Z,100562.91
2023-04-15T12:02:19.078Z,100563.53
2023-04-15T12:04:50.273Z,100558.56
2023-04-15T12:07:22.459Z,100557.81
2023-04-15T12:10:00.279Z,100550.44
2023-04-15T12:12:34.037Z,100544.75
2023-04-15T12:15:04.604Z,100545.31
2023-04-15T12:17:51.606Z,100560.03
2023-04-15T12:20:28.810Z,100551.41
2023-04-15T12:23:10.595Z,100546.88
2023-04-15T12:25:43.596Z,100553.75
2023-04-15T12:28:16.862Z,100544.41
2023-04-15T12:30:53.378Z,100537.31
2023-04-15T12:33:26.372Z,100538.81
2023-04-15T12:35:56.797Z,100536.34
2023-04-15T12:38:32.216Z,100543.38
2023-04-15T12:41:02.778Z,100542.78
2023-04-15T12:43:33.302Z,100541.16
2023-04-15T12:46:03.811Z,100541.03
2023-04-15T12:48:37.324Z,100535.56
2023-04-15T12:51:07.822Z,100526.84
2023-04-15T12:53:47.140Z,100527.06
2023-04-15T12:56:20.832Z,100528.56
2023-04-15T12:58:51.307Z,100533.00
2023-04-15T13:01:21.798Z,100537.44
2023-04-15T13:03:54.627Z,100537.66
2023-04-15T13:06:28.205Z,100534.41
2023-04-15T13:09:05.255Z,100551.16
2023-04-15T13:11:37.340Z,100517.25
2023-04-15T13:14:11.958Z,100555.91
2023-04-15T13:16:44.422Z,100541.72
2023-04-15T13:19:16.589Z,100540.84
2023-04-15T13:21:47.201Z,100539.09
2023-04-15T13:24:21.330Z,100540.94
2023-04-15T13:26:51.924Z,100541.88
2023-04-15T13:29:23.013Z,100546.50
2023-04-15T13:31:55.505Z,100537.22
2023-04-15T13:34:26.051Z,100548.16
2023-04-15T13:36:56.568Z,100546.38
2023-04-15T13:39:28.693Z,100548.25
2023-04-15T13:41:59.108Z,100544.16
2023-04-15T13:44:29.787Z,100547.75
2023-04-15T13:47:04.543Z,100548.69
2023-04-15T13:49:34.929Z,100554.75
2023-04-15T13:52:08.571Z,100554.75
2023-04-15T13:54:41.998Z,100544.38
2023-04-15T13:57:12.683Z,100543.50
2023-04-15T13:59:43.178Z,100548.69
2023-04-15T14:03:02.023Z,100555.03
2023-04-15T14:05:35.435Z,100550.66
2023-04-15T14:08:08.468Z,100544.72
2023-04-15T14:10:42.630Z,100548.91
2023-04-15T14:13:13.099Z,100550.53
2023-04-15T14:15:43.808Z,100540.41
2023-04-15T14:18:14.370Z,100523.94
2023-04-15T14:20:44.747Z,100522.72
2023-04-15T14:23:17.318Z,100520.44
2023-04-15T14:25:49.477Z,100510.91
2023-04-15T14:28:20.113Z,100516.50
2023-04-15T14:30:50.740Z,100508.56
2023-04-15T14:33:23.909Z,100505.91
2023-04-15T14:35:54.928Z,100491.00
2023-04-15T14:38:25.465Z,100480.53
2023-04-15T14:40:57.564Z,100490.88
2023-04-15T14:43:28.091Z,100483.03
2023-04-15T14:46:01.766Z,100485.50
2023-04-15T14:48:33.660Z,100484.16
2023-04-15T14:51:08.745Z,100473.91
2023-04-15T14:53:40.295Z,100465.28
2023-04-15T14:56:42.526Z,100448.31
2023-04-15T14:59:26.925Z,100459.63
2023-04-15T15:02:37.384Z,100467.38
2023-04-15T15:05:12.044Z,100459.69
2023-04-15T15:08:22.315Z,100460.50
2023-04-15T15:10:53.076Z,100418.63
2023-04-15T15:13:26.250Z,100458.06
2023-04-15T15:16:10.963Z,100460.84
2023-04-15T15:18:42.461Z,100472.84
2023-04-15T15:21:19.323Z,100476.22
2023-04-15T15:23:51.213Z,100477.97
2023-04-15T15:26:31.336Z,100474.59
2023-04-15T15:29:06.501Z,100485.94
2023-04-15T15:31:41.680Z,100484.44
2023-04-15T15:34:12.264Z,100481.91
2023-04-15T15:36:47.884Z,100477.03
2023-04-15T15:39:19.262Z,100479.84
2023-04-15T15:41:51.636Z,100473.88
2023-04-15T15:44:24.274Z,100478.25
2023-04-15T15:46:56.382Z,100472.09
2023-04-15T15:49:30.804Z,100460.84
2023-04-15T15:52:01.661Z,100447.09
2023-04-15T15:54:32.741Z,100456.38
2023-04-15T15:57:11.075Z,100474.47
2023-04-15T16:16:20.262Z,100457.81
2023-04-15T16:19:33.906Z,100427.91
2023-04-15T16:22:34.393Z,100440.22
2023-04-15T16:25:07.525Z,100441.16
2023-04-15T16:30:22.011Z,100419.03
2023-04-15T16:32:55.375Z,100336.44
2023-04-15T16:35:27.986Z,100417.50
2023-04-15T16:38:01.010Z,100415.91
2023-04-15T16:40:31.586Z,100412.50
2023-04-15T16:43:08.101Z,100406.31
2023-04-15T16:45:40.620Z,100424.03
2023-04-15T16:48:14.631Z,100409.97
2023-04-15T16:50:45.078Z,100404.75
2023-04-15T16:53:15.844Z,100407.75
2023-04-15T16:56:25.803Z,100425.00
2023-04-15T17:02:29.049Z,100404.88
2023-04-15T17:05:01.409Z,100403.31
2023-04-15T17:07:34.817Z,100410.06
2023-04-15T17:10:20.404Z,100412.16
2023-04-15T17:12:52.888Z,100411.44
2023-04-15T17:15:23.626Z,100377.81
2023-04-15T17:17:54.278Z,100407.56
2023-04-15T17:20:29.238Z,100412.47
2023-04-15T17:22:59.761Z,100408.88
2023-04-15T17:25:31.494Z,100396.06
2023-04-15T17:28:02.122Z,100392.59
2023-04-15T17:30:32.758Z,100394.22
2023-04-15T17:33:03.313Z,100401.09
2023-04-15T17:35:55.461Z,100413.19
2023-04-15T17:38:25.980Z,100411.75
2023-04-15T17:40:56.478Z,100284.03
2023-04-15T17:43:29.152Z,100388.81
2023-04-15T17:46:02.648Z,100387.66
2023-04-15T17:48:33.292Z,100382.16
2023-04-15T17:51:05.506Z,100393.09
2023-04-15T17:53:36.190Z,100375.53
2023-04-15T17:56:07.042Z,100386.09
2023-04-15T17:58:40.318Z,100382.50
2023-04-15T18:01:10.766Z,100379.84
2023-04-15T18:03:41.457Z,100372.50
2023-04-15T18:06:17.743Z,100375.94
2023-04-15T18:08:48.243Z,100382.84
2023-04-15T18:11:18.900Z,100366.44
2023-04-15T18:13:52.335Z,100362.66
2023-04-15T18:16:23.017Z,100372.06
2023-04-15T18:18:56.278Z,100361.91
2023-04-15T18:21:28.892Z,100359.19
2023-04-15T18:24:00.508Z,100374.16
2023-04-15T18:26:31.593Z,100363.69
2023-04-15T18:32:25.558Z,100397.97
2023-04-15T18:34:57.974Z,100382.84
2023-04-15T18:37:31.312Z,100365.59
2023-04-15T18:40:04.945Z,100367.03
2023-04-15T18:43:07.993Z,100373.13
2023-04-15T18:45:38.645Z,100336.56
2023-04-15T18:48:09.297Z,100340.94
2023-04-15T18:50:39.747Z,100325.03
2023-04-15T18:53:11.915Z,100318.63
2023-04-15T18:55:43.201Z,100306.41
2023-04-15T18:58:16.734Z,100311.13
2023-04-15T19:00:50.011Z,100320.72
2023-04-15T19:03:23.189Z,100297.38
2023-04-15T19:05:56.606Z,100286.94
2023-04-15T19:08:30.228Z,100307.53
2023-04-15T19:11:00.703Z,100297.38
2023-04-15T19:13:31.144Z,100290.53
2023-04-15T19:16:04.287Z,100307.47
2023-04-15T19:18:37.021Z,100289.28
2023-04-15T19:21:10.124Z,100298.72
2023-04-15T19:23:45.250Z,100303.28
2023-04-15T19:26:20.673Z,100294.22
2023-04-15T19:28:54.644Z,100288.50
2023-04-15T19:31:27.763Z,100302.94
2023-04-15T19:34:01.002Z,100277.81
2023-04-15T19:36:32.284Z,100279.56
2023-04-15T19:39:09.733Z,100294.94
2023-04-15T19:41:40.559Z,100292.88
2023-04-15T19:44:13.567Z,100277.91
2023-04-15T19:46:45.697Z,100294.31
2023-04-15T19:49:16.116Z,100294.97
2023-04-15T19:51:50.438Z,100286.31
2023-04-15T19:54:22.566Z,100288.31
2023-04-15T19:56:52.991Z,100287.91
2023-04-15T19:59:23.532Z,100291.47
2023-04-15T20:01:54.941Z,100282.84
2023-04-15T20:04:25.576Z,100288.47
2023-04-15T20:06:56.574Z,100273.56
2023-04-15T20:09:28.653Z,100256.72
2023-04-15T20:12:46.093Z,100262.16
2023-04-15T20:14:50.076Z,100257.31
2023-04-15T20:17:20.484Z,100260.66
2023-04-15T20:19:50.852Z,100263.81
2023-04-15T20:22:21.252Z,100261.97
2023-04-15T20:24:53.243Z,100262.13
2023-04-15T20:27:24.228Z,100266.09
2023-04-15T20:29:54.652Z,100261.03
2023-04-15T20:32:25.211Z,100266.44
2023-04-15T20:34:55.646Z,100259.06
2023-04-15T20:37:25.976Z,100251.84
2023-04-15T20:39:58.036Z,100258.09
2023-04-15T20:42:28.488Z,100244.44
2023-04-15T20:44:58.894Z,100223.97
2023-04-15T20:47:29.453Z,100218.97
2023-04-15T20:50:00.012Z,100217.38
2023-04-15T20:52:30.601Z,100195.84
2023-04-15T20:55:02.634Z,100181.69
2023-04-15T20:57:33.112Z,100227.66
2023-04-15T21:00:03.588Z,100241.66
2023-04-15T21:02:34.233Z,100259.78
2023-04-15T21:05:04.867Z,100260.72
2023-04-15T21:07:35.253Z,100271.16
2023-04-15T21:10:07.592Z,100260.09
2023-04-15T21:12:38.457Z,100264.34
2023-04-15T21:15:09.896Z,100266.09
2023-04-15T21:17:40.464Z,100270.63
2023-04-15T21:20:11.958Z,100268.13
2023-04-15T21:22:42.378Z,100252.88
2023-04-15T21:25:15.104Z,100244.38
2023-04-15T21:27:45.902Z,100238.47
2023-04-15T21:30:16.811Z,100230.44
2023-04-15T21:32:47.598Z,100231.44
2023-04-15T21:35:18.220Z,100225.41
2023-04-15T21:37:48.763Z,100207.56
2023-04-15T21:40:21.221Z,100209.31
2023-04-15T21:42:52.562Z,100210.94
2023-04-15T21:45:23.036Z,100200.50
2023-04-15T21:48:01.243Z,100201.47
2023-04-15T21:50:39.202Z,100201.41
2023-04-15T21:53:11.582Z,100195.31
2023-04-15T21:55:43.852Z,100186.00
2023-04-15T21:58:14.427Z,100174.81
2023-04-15T22:00:45.003Z,100176.53
2023-04-15T22:03:15.996Z,100189.38
2023-04-15T22:05:48.829Z,100125.09
2023-04-15T22:08:19.364Z,100150.69
2023-04-15T22:10:51.472Z,100202.25
2023-04-15T22:13:22.022Z,100171.44
2023-04-15T22:15:52.476Z,100171.47
2023-04-15T22:18:23.016Z,100162.91
2023-04-15T22:20:53.714Z,100132.09
2023-04-15T22:23:24.408Z,100139.25
2023-04-15T22:25:56.882Z,100126.38
2023-04-15T22:28:27.340Z,100127.19
2023-04-15T22:30:58.889Z,100116.91
2023-04-15T22:33:29.472Z,100137.56
2023-04-15T22:36:00.366Z,100118.72
2023-04-15T22:38:30.956Z,100117.91
2023-04-15T22:41:03.233Z,100105.00
2023-04-15T22:43:33.695Z,100130.88
2023-04-15T22:46:07.523Z,100129.13
2023-04-15T22:48:38.174Z,100098.09
2023-04-15T22:51:08.920Z,100122.53
2023-04-15T22:53:39.409Z,100067.88
2023-04-15T22:56:11.805Z,100112.25
2023-04-15T22:58:42.652Z,100075.28
2023-04-15T23:01:13.359Z,100089.94
2023-04-15T23:03:57.178Z,100104.59
2023-04-15T23:06:34.616Z,100106.38
2023-04-15T23:09:05.094Z,100109.94
2023-04-15T23:11:37.406Z,100093.72
2023-04-15T23:14:07.947Z,100102.34
2023-04-15T23:16:38.694Z,100091.25
2023-04-15T23:19:09.821Z,100100.75
2023-04-15T23:21:40.368Z,100081.06
2023-04-15T23:24:11.148Z,100073.25
2023-04-15T23:26:43.308Z,100037.13
2023-04-15T23:29:13.889Z,100045.41
2023-04-15T23:31:44.476Z,100061.81
2023-04-15T23:34:18.118Z,100081.44
2023-04-15T23:36:49.285Z,100064.31
2023-04-15T23:39:19.886Z,100049.03
2023-04-15T23:41:52.476Z,100045.78
2023-04-15T23:44:26.310Z,100061.34
2023-04-15T23:46:57.032Z,100052.78
2023-04-15T23:49:27.758Z,100057.72
2023-04-15T23:51:58.391Z,100067.25
2023-04-15T23:54:28.994Z,100060.38
2023-04-15T23:57:01.110Z,100051.91
2023-04-15T23:59:31.552Z,100020.59
